createdAt,value
2022-09-28T00:00:14.430Z,96317.56
2022-09-28T00:02:43.715Z,96322.59
2022-09-28T00:05:13.697Z,96319.06
2022-09-28T00:07:44.844Z,96312.69
2022-09-28T00:10:14.007Z,96307.59
2022-09-28T00:12:43.316Z,96311.06
2022-09-28T00:15:12.901Z,96310.69
2022-09-28T00:17:44.936Z,96312.53
2022-09-28T00:20:14.496Z,96319.28
2022-09-28T00:22:45.321Z,96310.31
2022-09-28T00:25:16.976Z,96320.88
2022-09-28T00:27:51.762Z,96320.91
2022-09-28T00:30:21.224Z,96306.53
2022-09-28T00:32:50.582Z,96297.03
2022-09-28T00:35:19.757Z,96299.13
2022-09-28T00:37:52.231Z,96295.38
2022-09-28T00:40:21.514Z,96314.22
2022-09-28T00:42:50.781Z,96315.16
2022-09-28T00:45:20.053Z,96314.50
2022-09-28T00:47:52.238Z,96309.41
2022-09-28T00:50:28.365Z,96305.63
2022-09-28T00:53:01.402Z,96305.22
2022-09-28T00:55:36.078Z,96306.72
2022-09-28T00:58:08.628Z,96305.16
2022-09-28T01:00:40.639Z,96307.44
2022-09-28T01:03:10.958Z,96309.06
2022-09-28T01:05:41.594Z,96315.25
2022-09-28T01:08:13.572Z,96311.06
2022-09-28T01:10:43.642Z,96316.00
2022-09-28T01:13:13.504Z,96309.94
2022-09-28T01:15:48.595Z,96316.97
2022-09-28T01:18:23.905Z,96313.25
2022-09-28T01:21:05.421Z,96320.25
2022-09-28T01:24:11.068Z,96322.22
2022-09-28T01:27:07.681Z,96321.00
2022-09-28T01:29:53.542Z,96326.06
2022-09-28T01:32:32.069Z,96316.84
2022-09-28T01:35:06.725Z,96315.41
2022-09-28T01:37:41.911Z,96305.69
2022-09-28T01:40:12.149Z,96300.56
2022-09-28T01:42:45.455Z,96283.38
2022-09-28T01:45:18.613Z,96288.28
2022-09-28T01:47:51.371Z,96290.97
2022-09-28T01:50:24.543Z,96296.06
2022-09-28T01:52:55.948Z,96284.00
2022-09-28T01:55:30.726Z,96279.63
2022-09-28T01:58:04.567Z,96284.81
2022-09-28T02:00:34.944Z,96283.75
2022-09-28T02:03:08.499Z,96285.22
2022-09-28T02:05:40.576Z,96281.66
2022-09-28T02:08:13.101Z,96288.88
2022-09-28T02:10:45.956Z,96285.50
2022-09-28T02:13:20.562Z,96276.38
2022-09-28T02:15:55.352Z,96272.09
2022-09-28T02:18:24.792Z,96267.31
2022-09-28T02:21:00.444Z,96265.47
2022-09-28T02:23:31.265Z,96266.31
2022-09-28T02:26:04.920Z,96256.59
2022-09-28T02:28:35.634Z,96261.72
2022-09-28T02:31:05.377Z,96269.06
2022-09-28T02:33:37.855Z,96257.78
2022-09-28T02:36:07.808Z,96253.44
2022-09-28T02:38:38.680Z,96254.25
2022-09-28T02:41:13.595Z,96258.59
2022-09-28T02:43:55.216Z,96265.03
2022-09-28T02:46:31.407Z,96268.22
2022-09-28T02:49:24.361Z,96265.13
2022-09-28T02:52:23.420Z,96265.88
2022-09-28T02:55:20.943Z,96258.97
2022-09-28T02:58:09.849Z,96262.50
2022-09-28T03:00:46.684Z,96258.59
2022-09-28T03:03:20.846Z,96270.72
2022-09-28T03:06:01.385Z,96270.56
2022-09-28T03:08:35.676Z,96266.75
2022-09-28T03:11:07.119Z,96268.97
2022-09-28T03:13:37.706Z,96273.63
2022-09-28T03:16:13.812Z,96268.56
2022-09-28T03:18:43.500Z,96264.06
2022-09-28T03:21:14.089Z,96266.97
2022-09-28T03:23:45.230Z,96263.63
2022-09-28T03:26:16.940Z,96252.56
2022-09-28T03:28:46.649Z,96247.13
2022-09-28T03:31:20.954Z,96246.75
2022-09-28T03:33:50.722Z,96247.16
2022-09-28T03:36:20.190Z,96240.34
2022-09-28T03:38:49.798Z,96245.47
2022-09-28T03:41:20.066Z,96235.88
2022-09-28T03:43:53.007Z,96245.06
2022-09-28T03:46:23.940Z,96243.59
2022-09-28T03:48:53.606Z,96253.22
2022-09-28T03:51:22.827Z,96243.50
2022-09-28T03:53:52.355Z,96241.13
2022-09-28T03:56:22.061Z,96243.81
2022-09-28T03:58:51.451Z,96244.59
2022-09-28T04:01:22.496Z,96250.59
2022-09-28T04:03:56.058Z,96249.63
2022-09-28T04:06:25.786Z,96248.13
2022-09-28T04:08:55.486Z,96238.16
2022-09-28T04:11:25.488Z,96233.31
2022-09-28T04:13:54.966Z,96236.34
2022-09-28T04:16:26.422Z,96235.47
2022-09-28T04:18:56.738Z,96220.25
2022-09-28T04:21:26.750Z,96219.16
2022-09-28T04:23:58.202Z,96223.56
2022-09-28T04:26:29.144Z,96216.41
2022-09-28T04:29:16.288Z,96211.66
2022-09-28T04:31:49.793Z,96211.97
2022-09-28T04:34:21.136Z,96216.00
2022-09-28T04:36:51.509Z,96216.00
2022-09-28T04:39:21.670Z,96210.00
2022-09-28T04:41:51.349Z,96215.13
2022-09-28T04:44:23.153Z,96208.91
2022-09-28T04:46:56.150Z,96222.41
2022-09-28T04:49:25.813Z,96222.91
2022-09-28T04:51:55.295Z,96223.59
2022-09-28T04:54:24.954Z,96239.19
2022-09-28T04:56:54.314Z,96236.31
2022-09-28T04:59:23.876Z,96248.66
2022-09-28T05:01:55.046Z,96247.34
2022-09-28T05:04:26.264Z,96246.91
2022-09-28T05:06:55.714Z,96255.31
2022-09-28T05:09:25.785Z,96249.06
2022-09-28T05:11:55.185Z,96247.63
2022-09-28T05:14:24.862Z,96235.59
2022-09-28T05:16:56.203Z,96241.16
2022-09-28T05:19:25.798Z,96241.28
2022-09-28T05:21:58.083Z,96249.09
2022-09-28T05:24:27.579Z,96243.41
2022-09-28T05:26:57.162Z,96251.16
2022-09-28T05:29:31.341Z,96236.38
2022-09-28T05:32:03.061Z,96242.72
2022-09-28T05:34:33.147Z,96234.84
2022-09-28T05:37:03.191Z,96235.78
2022-09-28T05:39:32.699Z,96234.56
2022-09-28T05:42:02.247Z,96239.13
2022-09-28T05:44:32.720Z,96232.84
2022-09-28T05:47:03.662Z,96236.47
2022-09-28T05:49:33.492Z,96227.91
2022-09-28T05:52:03.655Z,96221.47
2022-09-28T05:54:33.736Z,96218.84
2022-09-28T05:57:03.482Z,96205.75
2022-09-28T05:59:35.285Z,96200.88
2022-09-28T06:02:09.036Z,96191.94
2022-09-28T06:04:39.084Z,96184.53
2022-09-28T06:07:08.628Z,96184.66
2022-09-28T06:09:38.558Z,96182.25
2022-09-28T06:12:08.592Z,96193.28
2022-09-28T06:14:39.101Z,96186.91
2022-09-28T06:17:10.390Z,96188.47
2022-09-28T06:19:39.691Z,96183.63
2022-09-28T06:22:09.521Z,96191.94
2022-09-28T06:24:39.014Z,96194.16
2022-09-28T06:27:08.379Z,96192.06
2022-09-28T06:29:37.483Z,96188.22
2022-09-28T06:32:09.245Z,96183.31
2022-09-28T06:34:38.823Z,96181.56
2022-09-28T06:37:08.845Z,96180.47
2022-09-28T06:39:38.355Z,96189.09
2022-09-28T06:42:08.427Z,96189.84
2022-09-28T06:44:38.019Z,96202.47
2022-09-28T06:47:09.698Z,96191.06
2022-09-28T06:49:39.618Z,96198.78
2022-09-28T06:52:09.094Z,96191.78
2022-09-28T06:54:39.495Z,96188.81
2022-09-28T06:57:08.864Z,96188.88
2022-09-28T06:59:42.802Z,96179.38
2022-09-28T07:02:15.038Z,96177.81
2022-09-28T07:04:44.876Z,96175.56
2022-09-28T07:07:14.912Z,96174.00
2022-09-28T07:09:49.400Z,96177.38
2022-09-28T07:12:20.715Z,96167.88
2022-09-28T07:14:50.561Z,96166.50
2022-09-28T07:17:21.477Z,96170.53
2022-09-28T07:19:52.861Z,96155.19
2022-09-28T07:22:34.896Z,96143.84
2022-09-28T07:25:10.129Z,96141.13
2022-09-28T07:27:39.710Z,96141.44
2022-09-28T07:30:10.198Z,96136.09
2022-09-28T07:32:41.420Z,96134.75
2022-09-28T07:35:10.863Z,96139.00
2022-09-28T07:37:40.146Z,96140.97
2022-09-28T07:40:28.938Z,96134.66
2022-09-28T07:42:58.443Z,96138.69
2022-09-28T07:45:30.609Z,96145.31
2022-09-28T07:48:01.536Z,96138.66
2022-09-28T07:50:30.901Z,96140.19
2022-09-28T07:53:00.630Z,96134.56
2022-09-28T07:55:29.845Z,96122.72
2022-09-28T07:58:01.856Z,96133.56
2022-09-28T08:00:34.318Z,96126.00
2022-09-28T08:03:05.203Z,96127.50
2022-09-28T08:05:36.120Z,96128.44
2022-09-28T08:08:05.395Z,96134.75
2022-09-28T08:10:34.949Z,96130.41
2022-09-28T08:13:06.474Z,96143.28
2022-09-28T08:15:38.399Z,96131.88
2022-09-28T08:18:10.567Z,96136.41
2022-09-28T08:20:57.579Z,96127.28
2022-09-28T08:23:27.403Z,96125.72
2022-09-28T08:25:56.828Z,96127.09
2022-09-28T08:28:26.699Z,96132.72
2022-09-28T08:30:56.619Z,96129.06
2022-09-28T08:33:27.805Z,96129.97
2022-09-28T08:35:58.495Z,96137.06
2022-09-28T08:38:29.091Z,96129.81
2022-09-28T08:41:06.546Z,96121.91
2022-09-28T08:44:05.286Z,96115.47
2022-09-28T08:46:37.297Z,96110.25
2022-09-28T08:49:24.576Z,96103.81
2022-09-28T08:51:58.811Z,96102.88
2022-09-28T08:54:34.926Z,96101.88
2022-09-28T08:57:08.829Z,96099.31
2022-09-28T08:59:46.619Z,96104.72
2022-09-28T09:02:19.934Z,96104.88
2022-09-28T09:04:51.780Z,96103.06
2022-09-28T09:07:47.806Z,96105.22
2022-09-28T09:10:33.985Z,96103.81
2022-09-28T09:13:24.199Z,96095.84
2022-09-28T09:16:01.627Z,96091.03
2022-09-28T09:18:37.939Z,96101.88
2022-09-28T09:21:14.084Z,96104.16
2022-09-28T09:23:54.229Z,96099.44
2022-09-28T09:26:35.350Z,96093.44
2022-09-28T09:29:23.050Z,96090.66
2022-09-28T09:32:11.852Z,96094.50
2022-09-28T09:34:52.965Z,96097.22
2022-09-28T09:37:44.437Z,96087.28
2022-09-28T09:40:30.523Z,96095.53
2022-09-28T09:43:12.638Z,96091.44
2022-09-28T09:45:53.208Z,96100.50
2022-09-28T09:48:27.069Z,96097.34
2022-09-28T09:51:00.233Z,96092.72
2022-09-28T09:53:37.755Z,96090.56
2022-09-28T09:56:15.387Z,96087.16
2022-09-28T09:58:48.836Z,96079.09
2022-09-28T10:01:21.886Z,96086.47
2022-09-28T10:03:53.172Z,96082.63
2022-09-28T10:06:27.613Z,96074.25
2022-09-28T10:09:04.913Z,96075.91
2022-09-28T10:11:37.158Z,96070.63
2022-09-28T10:14:08.257Z,96070.28
2022-09-28T10:16:37.988Z,96078.81
2022-09-28T10:19:09.667Z,96080.09
2022-09-28T10:21:41.290Z,96075.81
2022-09-28T10:24:19.198Z,96070.63
2022-09-28T10:26:51.731Z,96063.22
2022-09-28T10:29:23.538Z,96073.75
2022-09-28T10:31:53.628Z,96065.69
2022-09-28T10:34:28.552Z,96057.16
2022-09-28T10:37:00.704Z,96067.88
2022-09-28T10:39:34.371Z,96062.06
2022-09-28T10:42:06.952Z,96056.47
2022-09-28T10:44:44.963Z,96049.53
2022-09-28T10:47:18.269Z,96054.47
2022-09-28T10:49:49.499Z,96066.06
2022-09-28T10:52:40.095Z,96058.13
2022-09-28T10:55:39.061Z,96067.22
2022-09-28T10:58:28.007Z,96061.03
2022-09-28T11:01:05.291Z,96064.03
2022-09-28T11:03:34.861Z,96048.03
2022-09-28T11:06:06.669Z,96042.09
2022-09-28T11:08:38.963Z,96041.44
2022-09-28T11:11:12.559Z,96044.19
2022-09-28T11:13:44.666Z,96038.66
2022-09-28T11:16:26.379Z,96039.00
2022-09-28T11:18:55.696Z,96037.03
2022-09-28T11:21:27.398Z,96038.88
2022-09-28T11:24:08.321Z,96025.88
2022-09-28T11:26:43.545Z,96020.91
2022-09-28T11:29:22.927Z,96019.59
2022-09-28T11:31:53.427Z,96012.91
2022-09-28T11:34:36.512Z,96009.44
2022-09-28T11:37:39.722Z,96006.50
2022-09-28T11:40:21.842Z,96007.47
2022-09-28T11:43:00.306Z,96008.34
2022-09-28T11:45:42.532Z,96003.97
2022-09-28T11:48:15.772Z,95993.19
2022-09-28T11:50:50.080Z,95999.03
2022-09-28T11:53:24.720Z,95998.84
2022-09-28T11:55:58.877Z,96010.97
2022-09-28T11:58:34.413Z,96001.19
2022-09-28T12:01:07.062Z,95984.41
2022-09-28T12:03:42.211Z,95988.53
2022-09-28T12:06:16.947Z,95985.66
2022-09-28T12:08:52.083Z,95982.00
2022-09-28T12:11:25.236Z,95978.38
2022-09-28T12:13:58.105Z,95981.78
2022-09-28T12:19:22.484Z,95990.16
2022-09-28T12:21:53.077Z,95988.50
2022-09-28T12:24:26.367Z,95982.06
2022-09-28T12:26:58.611Z,95972.78
2022-09-28T12:29:33.288Z,95966.59
2022-09-28T12:32:09.333Z,95972.72
2022-09-28T12:34:38.478Z,95962.63
2022-09-28T12:37:25.810Z,95956.53
2022-09-28T12:40:08.008Z,95950.09
2022-09-28T12:42:49.483Z,95947.16
2022-09-28T12:46:10.584Z,95928.28
2022-09-28T12:49:24.090Z,95941.16
2022-09-28T12:51:49.175Z,95944.44
2022-09-28T12:54:44.343Z,95932.34
2022-09-28T12:57:37.706Z,95941.81
2022-09-28T13:00:10.278Z,95940.06
2022-09-28T13:02:57.507Z,95942.56
2022-09-28T13:05:46.665Z,95933.78
2022-09-28T13:08:19.549Z,95932.69
2022-09-28T13:10:53.528Z,95941.31
2022-09-28T13:13:34.756Z,95931.59
2022-09-28T13:16:09.709Z,95935.63
2022-09-28T13:18:45.150Z,95927.41
2022-09-28T13:21:24.423Z,95937.34
2022-09-28T13:24:08.761Z,95933.34
2022-09-28T13:26:47.182Z,95929.00
2022-09-28T13:29:19.272Z,95931.84
2022-09-28T13:31:50.636Z,95937.53
2022-09-28T13:34:22.705Z,95939.75
2022-09-28T13:37:12.180Z,95933.63
2022-09-28T13:39:52.879Z,95937.16
2022-09-28T13:42:50.831Z,95924.50
2022-09-28T13:45:40.360Z,95925.06
2022-09-28T13:48:17.347Z,95916.34
2022-09-28T13:51:06.171Z,95917.50
2022-09-28T13:53:45.484Z,95922.84
2022-09-28T13:56:27.026Z,95912.81
2022-09-28T13:58:59.740Z,95910.31
2022-09-28T14:01:31.243Z,95910.41
2022-09-28T14:04:15.914Z,95912.16
2022-09-28T14:06:49.426Z,95922.13
2022-09-28T14:09:42.562Z,95928.97
2022-09-28T14:12:31.284Z,95917.19
2022-09-28T14:15:00.619Z,95918.38
2022-09-28T14:18:00.270Z,95917.91
2022-09-28T14:20:31.978Z,95923.22
2022-09-28T14:23:29.929Z,95925.31
2022-09-28T14:26:28.422Z,95912.97
2022-09-28T14:29:09.959Z,95923.28
2022-09-28T14:31:43.793Z,95921.72
2022-09-28T14:34:34.250Z,95922.56
2022-09-28T14:37:22.741Z,95919.69
2022-09-28T14:40:09.572Z,95922.47
2022-09-28T14:42:40.557Z,95918.31
2022-09-28T14:45:38.935Z,95916.59
2022-09-28T14:48:20.681Z,95917.75
2022-09-28T14:50:50.353Z,95915.59
2022-09-28T14:53:22.334Z,95924.09
2022-09-28T14:55:52.754Z,95920.81
2022-09-28T14:58:26.889Z,95927.63
2022-09-28T15:01:01.599Z,95916.47
2022-09-28T15:03:33.378Z,95921.47
2022-09-28T15:06:02.863Z,95921.06
2022-09-28T15:08:39.045Z,95917.09
2022-09-28T15:11:12.487Z,95919.88
2022-09-28T15:13:44.107Z,95926.63
2022-09-28T15:16:15.038Z,95925.56
2022-09-28T15:19:09.243Z,95918.53
2022-09-28T15:21:42.949Z,95920.59
2022-09-28T15:24:43.224Z,95920.81
2022-09-28T15:27:19.065Z,95917.47
2022-09-28T15:29:59.057Z,95921.81
2022-09-28T15:32:29.775Z,95925.81
2022-09-28T15:35:00.229Z,95926.78
2022-09-28T15:37:36.494Z,95923.25
2022-09-28T15:40:15.187Z,95930.19
2022-09-28T15:42:45.462Z,95927.16
2022-09-28T15:45:37.137Z,95927.97
2022-09-28T15:48:27.711Z,95932.69
2022-09-28T15:51:05.163Z,95938.75
2022-09-28T15:53:35.244Z,95931.19
2022-09-28T15:56:10.163Z,95933.63
2022-09-28T15:58:40.591Z,95931.88
2022-09-28T16:01:36.687Z,95937.53
2022-09-28T16:04:36.303Z,95927.69
2022-09-28T16:07:21.026Z,95942.03
2022-09-28T16:10:02.251Z,95936.44
2022-09-28T16:12:41.195Z,95934.19
2022-09-28T16:15:18.321Z,95941.09
2022-09-28T16:17:52.743Z,95942.88
2022-09-28T16:20:29.851Z,95948.19
2022-09-28T16:23:05.772Z,95938.09
2022-09-28T16:25:37.216Z,95940.25
2022-09-28T16:28:07.523Z,95937.56
2022-09-28T16:30:36.988Z,95940.41
2022-09-28T16:33:27.200Z,95937.31
2022-09-28T16:35:56.393Z,95931.38
2022-09-28T16:38:25.619Z,95937.94
2022-09-28T16:40:55.173Z,95937.34
2022-09-28T16:43:28.592Z,95945.25
2022-09-28T16:45:58.621Z,95948.53
2022-09-28T16:48:31.160Z,95943.28
2022-09-28T16:51:00.802Z,95943.06
2022-09-28T16:53:47.523Z,95945.31
2022-09-28T16:56:16.819Z,95958.72
2022-09-28T16:58:49.253Z,95957.47
2022-09-28T17:01:19.727Z,95953.97
2022-09-28T17:03:51.208Z,95962.59
2022-09-28T17:06:22.222Z,95957.81
2022-09-28T17:08:51.694Z,95967.00
2022-09-28T17:11:24.617Z,95963.59
2022-09-28T17:13:56.883Z,95966.94
2022-09-28T17:16:49.735Z,95958.47
2022-09-28T17:19:22.158Z,95946.19
2022-09-28T17:21:51.458Z,95949.16
2022-09-28T17:24:21.403Z,95941.38
2022-09-28T17:26:52.677Z,95939.34
2022-09-28T17:29:22.364Z,95938.41
2022-09-28T17:31:52.186Z,95943.81
2022-09-28T17:34:23.904Z,95938.88
2022-09-28T17:36:53.983Z,95934.75
2022-09-28T17:39:25.103Z,95941.63
2022-09-28T17:41:54.277Z,95937.97
2022-09-28T17:44:23.835Z,95940.16
2022-09-28T17:46:54.010Z,95942.88
2022-09-28T17:49:24.870Z,95946.50
2022-09-28T17:51:54.311Z,95944.88
2022-09-28T17:54:25.866Z,95941.66
2022-09-28T17:56:55.665Z,95939.22
2022-09-28T17:59:26.758Z,95950.44
2022-09-28T18:01:58.319Z,95944.72
2022-09-28T18:04:51.181Z,95954.72
2022-09-28T18:07:21.124Z,95950.50
2022-09-28T18:09:56.741Z,95956.53
2022-09-28T18:12:29.052Z,95961.50
2022-09-28T18:14:58.478Z,95959.81
2022-09-28T18:17:28.155Z,95955.38
2022-09-28T18:19:58.769Z,95954.44
2022-09-28T18:22:28.166Z,95956.22
2022-09-28T18:24:57.974Z,95953.84
2022-09-28T18:27:28.821Z,95954.88
2022-09-28T18:29:58.280Z,95956.22
2022-09-28T18:32:28.022Z,95941.63
2022-09-28T18:34:58.890Z,95957.69
2022-09-28T18:37:28.176Z,95962.91
2022-09-28T18:39:57.492Z,95958.75
2022-09-28T18:42:26.953Z,95949.09
2022-09-28T18:44:56.126Z,95950.13
2022-09-28T18:47:25.699Z,95947.91
2022-09-28T18:49:54.949Z,95951.53
2022-09-28T18:52:26.182Z,95950.31
2022-09-28T18:54:55.837Z,95945.41
2022-09-28T18:57:25.148Z,95951.06
2022-09-28T18:59:54.747Z,95954.88
2022-09-28T19:02:24.132Z,95947.97
2022-09-28T19:04:53.557Z,95953.19
2022-09-28T19:07:24.589Z,95953.00
2022-09-28T19:09:54.183Z,95946.28
2022-09-28T19:12:23.936Z,95954.19
2022-09-28T19:14:53.141Z,95965.00
2022-09-28T19:17:22.445Z,95969.50
2022-09-28T19:19:52.162Z,95954.84
2022-09-28T19:22:21.646Z,95960.09
2022-09-28T19:24:52.529Z,95961.50
2022-09-28T19:27:22.438Z,95957.66
2022-09-28T19:29:51.872Z,95969.31
2022-09-28T19:32:21.314Z,95968.16
2022-09-28T19:34:50.705Z,95958.22
2022-09-28T19:37:20.047Z,95955.88
2022-09-28T19:39:49.550Z,95958.38
2022-09-28T19:42:21.290Z,95957.56
2022-09-28T19:44:51.169Z,95967.22
2022-09-28T19:47:28.676Z,95974.19
2022-09-28T19:49:58.023Z,95980.31
2022-09-28T19:52:27.081Z,95972.91
2022-09-28T19:54:56.952Z,95978.06
2022-09-28T19:57:29.685Z,95973.72
2022-09-28T20:00:03.301Z,95969.31
2022-09-28T20:02:34.929Z,95974.38
2022-09-28T20:05:04.457Z,95965.38
2022-09-28T20:07:34.922Z,95975.31
2022-09-28T20:10:04.224Z,95978.91
2022-09-28T20:12:35.162Z,95982.66
2022-09-28T20:15:05.249Z,95972.13
2022-09-28T20:17:34.848Z,95981.25
2022-09-28T20:20:04.835Z,95974.03
2022-09-28T20:22:34.498Z,95965.66
2022-09-28T20:25:04.178Z,95973.81
2022-09-28T20:27:35.354Z,95976.56
2022-09-28T20:30:04.923Z,95979.19
2022-09-28T20:32:35.245Z,95972.25
2022-09-28T20:35:05.033Z,95979.56
2022-09-28T20:37:34.694Z,95996.56
2022-09-28T20:40:04.180Z,95989.78
2022-09-28T20:42:34.817Z,95980.09
2022-09-28T20:45:04.154Z,95978.41
2022-09-28T20:47:33.755Z,95976.28
2022-09-28T20:50:03.346Z,95977.69
2022-09-28T20:52:32.500Z,95970.63
2022-09-28T20:55:01.516Z,95962.06
2022-09-28T20:57:31.406Z,95970.50
2022-09-28T21:00:03.094Z,95972.69
2022-09-28T21:02:33.636Z,95974.19
2022-09-28T21:05:03.108Z,95973.22
2022-09-28T21:07:32.814Z,95980.00
2022-09-28T21:10:02.365Z,95979.03
2022-09-28T21:12:31.890Z,95978.78
2022-09-28T21:15:05.914Z,95990.19
2022-09-28T21:17:35.563Z,95984.34
2022-09-28T21:20:05.334Z,95977.00
2022-09-28T21:22:35.906Z,95984.06
2022-09-28T21:25:05.999Z,95995.63
2022-09-28T21:27:35.582Z,95984.72
2022-09-28T21:30:09.269Z,95982.09
2022-09-28T21:32:40.213Z,95994.97
2022-09-28T21:35:11.329Z,95988.28
2022-09-28T21:37:41.324Z,95982.84
2022-09-28T21:40:11.941Z,95982.19
2022-09-28T21:42:42.986Z,95967.84
2022-09-28T21:45:14.255Z,95971.19
2022-09-28T21:47:47.748Z,95965.38
2022-09-28T21:50:17.043Z,95960.69
2022-09-28T21:52:46.343Z,95968.38
2022-09-28T21:55:15.815Z,95961.59
2022-09-28T21:57:46.494Z,95964.91
2022-09-28T22:00:18.974Z,95971.28
2022-09-28T22:02:48.999Z,95985.75
2022-09-28T22:05:19.280Z,95984.88
2022-09-28T22:07:48.479Z,95993.66
2022-09-28T22:10:18.098Z,95984.13
2022-09-28T22:12:48.219Z,95984.19
2022-09-28T22:15:19.322Z,95990.84
2022-09-28T22:17:48.659Z,95985.28
2022-09-28T22:20:18.147Z,95992.34
2022-09-28T22:22:50.915Z,95985.28
2022-09-28T22:25:21.586Z,95981.25
2022-09-28T22:27:50.797Z,95978.25
2022-09-28T22:30:21.929Z,95983.22
2022-09-28T22:32:51.214Z,95983.88
2022-09-28T22:35:20.691Z,95990.06
2022-09-28T22:37:50.081Z,95985.09
2022-09-28T22:40:20.229Z,95972.50
2022-09-28T22:42:50.266Z,95976.69
2022-09-28T22:45:20.960Z,95986.97
2022-09-28T22:47:51.435Z,96002.94
2022-09-28T22:50:20.878Z,95999.69
2022-09-28T22:52:52.078Z,95984.53
2022-09-28T22:55:22.129Z,95978.78
2022-09-28T22:57:51.670Z,95983.88
2022-09-28T23:00:23.666Z,95987.63
2022-09-28T23:02:53.472Z,95992.66
2022-09-28T23:05:23.015Z,95984.34
2022-09-28T23:07:52.625Z,95992.81
2022-09-28T23:10:21.955Z,95993.41
2022-09-28T23:12:51.280Z,95991.66
2022-09-28T23:15:22.715Z,95981.91
2022-09-28T23:17:53.010Z,95984.72
2022-09-28T23:20:22.624Z,95985.94
2022-09-28T23:22:52.311Z,95978.81
2022-09-28T23:25:21.807Z,95981.81
2022-09-28T23:27:51.878Z,95976.94
2022-09-28T23:30:24.922Z,95973.16
2022-09-28T23:32:54.419Z,95965.53
2022-09-28T23:35:23.889Z,95978.91
2022-09-28T23:37:53.345Z,95977.19
2022-09-28T23:40:23.008Z,95980.50
2022-09-28T23:42:52.996Z,95979.06
2022-09-28T23:45:25.294Z,95984.19
2022-09-28T23:47:55.039Z,95974.97
2022-09-28T23:50:24.737Z,95986.59
2022-09-28T23:52:54.165Z,95992.63
2022-09-28T23:55:23.525Z,95986.78
2022-09-28T23:57:55.697Z,95998.38
